Time;durP1;ratioP1;P1;durP2;ratioP2;P2;SDS_P1;SDS_P2;PMS_P1;PMS_P2;Temp;Humidity;BMP_temperature;BMP_pressure;BME280_temperature;BME280_humidity;BME280_pressure;Samples;Min_cycle;Max_cycle;Signal;HPM_P1;HPM_P2
2021/04/09 00:00:21;;;;;;;1999.90;999.90;;;6.30;99.90;;;;;;4876156;29;20420;-93
2021/04/09 00:02:48;;;;;;;1999.90;999.90;;;6.30;99.90;;;;;;4881485;29;20064;-94
2021/04/09 00:05:18;;;;;;;1999.90;999.90;;;6.30;99.90;;;;;;4873771;29;20106;-94
2021/04/09 00:07:47;;;;;;;1999.90;999.90;;;6.30;99.90;;;;;;4874449;29;20072;-93
2021/04/09 00:10:14;;;;;;;1999.90;999.90;;;6.30;99.90;;;;;;4860379;29;20122;-93
2021/04/09 00:12:42;;;;;;;1999.90;999.90;;;6.30;99.90;;;;;;4865365;29;20145;-93
2021/04/09 00:15:11;;;;;;;1999.90;999.90;;;6.30;99.90;;;;;;4876715;29;20148;-93
2021/04/09 00:17:40;;;;;;;1999.90;999.90;;;6.30;99.90;;;;;;4878872;29;20109;-93
2021/04/09 00:20:07;;;;;;;1999.90;999.90;;;6.30;99.90;;;;;;4873798;29;20057;-94
2021/04/09 00:22:35;;;;;;;1999.90;999.90;;;6.30;99.90;;;;;;4852158;29;20470;-93
2021/04/09 00:25:02;;;;;;;1999.90;999.90;;;6.30;99.90;;;;;;4857105;29;20478;-91
2021/04/09 00:27:29;;;;;;;1999.90;999.90;;;6.30;99.90;;;;;;4851496;29;20434;-91
2021/04/09 00:29:56;;;;;;;1999.90;999.90;;;6.30;99.90;;;;;;4861790;29;20489;-92
2021/04/09 00:32:23;;;;;;;1999.90;999.90;;;6.30;99.90;;;;;;4862193;29;20061;-92
2021/04/09 00:34:51;;;;;;;1999.90;999.90;;;6.30;99.90;;;;;;4862431;29;20070;-93
2021/04/09 00:37:19;;;;;;;1999.90;999.90;;;6.30;99.90;;;;;;4862108;29;20057;-91
2021/04/09 00:39:46;;;;;;;1999.90;999.90;;;6.30;99.90;;;;;;4860880;29;20096;-91
2021/04/09 00:42:17;;;;;;;1999.90;999.90;;;6.20;99.90;;;;;;4862022;29;20429;-92
2021/04/09 00:44:45;;;;;;;1999.90;999.90;;;6.20;99.90;;;;;;4861710;29;20417;-92
2021/04/09 00:47:12;;;;;;;1999.90;999.90;;;6.20;99.90;;;;;;4861675;29;20061;-93
2021/04/09 00:49:40;;;;;;;1999.90;999.90;;;6.20;99.90;;;;;;4863786;29;20072;-91
2021/04/09 00:52:08;;;;;;;1999.90;999.90;;;6.10;99.90;;;;;;4860712;29;20498;-91
2021/04/09 00:54:36;;;;;;;1999.90;999.90;;;6.20;99.90;;;;;;4861815;29;20049;-91
2021/04/09 00:57:05;;;;;;;1999.90;999.90;;;6.20;99.90;;;;;;4865115;29;20420;-92
2021/04/09 00:59:35;;;;;;;1999.90;999.90;;;6.20;99.90;;;;;;4851497;29;20732;-92
2021/04/09 01:02:02;;;;;;;1999.90;999.90;;;6.20;99.90;;;;;;4862248;29;20070;-93
2021/04/09 01:04:31;;;;;;;1999.90;999.90;;;6.20;99.90;;;;;;4863530;29;20114;-94
2021/04/09 01:06:58;;;;;;;1999.90;999.90;;;6.20;99.90;;;;;;4864075;29;20081;-93
2021/04/09 01:09:26;;;;;;;1999.90;999.90;;;6.10;99.90;;;;;;4863956;29;20085;-93
2021/04/09 01:11:53;;;;;;;1999.90;999.90;;;6.20;99.90;;;;;;4863892;29;20053;-94
2021/04/09 01:14:21;;;;;;;1999.90;999.90;;;6.20;99.90;;;;;;4863299;29;20441;-93
2021/04/09 01:16:51;;;;;;;1999.90;999.90;;;6.10;99.90;;;;;;4863062;29;20058;-93
2021/04/09 01:19:47;;;;;;;1999.90;999.90;;;6.10;99.90;;;;;;4863455;29;20404;-93
2021/04/09 01:22:14;;;;;;;;;;;6.10;99.90;;;;;;4863485;29;20118;-92
2021/04/09 01:25:32;;;;;;;1999.90;999.90;;;6.10;99.90;;;;;;4862503;29;19972;-93
2021/04/09 01:28:15;;;;;;;1999.90;999.90;;;6.10;99.90;;;;;;4840769;29;20061;-93
2021/04/09 01:31:16;;;;;;;1999.90;999.90;;;6.10;99.90;;;;;;4863581;29;20084;-93
2021/04/09 01:33:47;;;;;;;1999.90;999.90;;;6.10;99.90;;;;;;4859660;29;20061;-93
2021/04/09 01:36:20;;;;;;;1999.90;999.90;;;6.10;99.90;;;;;;4862893;29;20058;-93
2021/04/09 01:38:52;;;;;;;1999.90;999.90;;;6.10;99.90;;;;;;4877054;29;20056;-93
2021/04/09 01:41:20;;;;;;;1999.90;999.90;;;6.10;99.90;;;;;;4877934;29;20061;-94
2021/04/09 01:43:48;;;;;;;1999.90;999.90;;;6.10;99.90;;;;;;4856937;29;20066;-93
2021/04/09 01:46:17;;;;;;;1999.90;999.90;;;6.10;99.90;;;;;;4847673;29;20157;-92
2021/04/09 01:48:47;;;;;;;1999.90;999.90;;;6.10;99.90;;;;;;4847584;29;20078;-93
2021/04/09 01:51:19;;;;;;;1999.90;999.90;;;6.10;99.90;;;;;;4847803;29;20062;-93
2021/04/09 01:53:47;;;;;;;1999.90;999.90;;;6.20;99.90;;;;;;4848421;29;20057;-93
2021/04/09 01:56:17;;;;;;;1999.90;999.90;;;6.20;99.90;;;;;;4848278;29;20069;-94
2021/04/09 01:58:45;;;;;;;1999.90;999.90;;;6.20;99.90;;;;;;4847937;29;20085;-93
2021/04/09 02:01:15;;;;;;;1999.90;999.90;;;6.20;99.90;;;;;;4847507;29;20145;-93
2021/04/09 02:03:46;;;;;;;1999.90;999.90;;;6.20;99.90;;;;;;4882594;29;20064;-93
2021/04/09 02:06:14;;;;;;;1999.90;999.90;;;6.20;99.90;;;;;;4884315;29;20140;-93
2021/04/09 02:08:42;;;;;;;1999.90;999.90;;;6.20;99.90;;;;;;4884961;29;20065;-93
2021/04/09 02:11:09;;;;;;;1999.90;999.90;;;6.20;99.90;;;;;;4884286;29;20088;-94
2021/04/09 02:13:38;;;;;;;1999.90;999.90;;;6.20;99.90;;;;;;4885530;29;20061;-94
2021/04/09 02:16:07;;;;;;;1999.90;999.90;;;6.20;99.90;;;;;;4884767;29;20057;-93
2021/04/09 02:18:36;;;;;;;1999.90;999.90;;;6.20;99.90;;;;;;4884825;29;20080;-94
2021/04/09 02:21:05;;;;;;;1999.90;999.90;;;6.30;99.90;;;;;;4884966;29;20404;-94
2021/04/09 02:23:32;;;;;;;1999.90;999.90;;;6.20;99.90;;;;;;4884270;29;20116;-94
2021/04/09 02:25:59;;;;;;;1999.90;999.90;;;6.30;99.90;;;;;;4884171;29;20484;-94
2021/04/09 02:28:27;;;;;;;1999.90;999.90;;;6.30;99.90;;;;;;4884497;29;20079;-92
2021/04/09 02:31:06;;;;;;;1999.90;999.90;;;6.30;99.90;;;;;;4884449;29;20432;-93
2021/04/09 02:33:35;;;;;;;1999.90;999.90;;;6.30;99.90;;;;;;4884613;29;20064;-94
2021/04/09 02:36:10;;;;;;;1999.90;999.90;;;6.30;99.90;;;;;;4883783;29;20132;-94
2021/04/09 02:38:38;;;;;;;1999.90;999.90;;;6.40;99.90;;;;;;4883971;29;20505;-91
2021/04/09 02:41:06;;;;;;;1999.90;999.90;;;6.30;99.90;;;;;;4865174;29;20088;-92
2021/04/09 02:43:33;;;;;;;1999.90;999.90;;;6.30;99.90;;;;;;4859371;29;20557;-91
2021/04/09 02:46:00;;;;;;;1999.90;999.90;;;6.40;99.90;;;;;;4863154;29;20050;-92
2021/04/09 02:48:34;;;;;;;1999.90;999.90;;;6.40;99.90;;;;;;4865237;29;20057;-93
2021/04/09 02:51:08;;;;;;;1999.90;999.90;;;6.40;99.90;;;;;;4871524;29;20083;-92
2021/04/09 02:53:39;;;;;;;1999.90;999.90;;;6.40;99.90;;;;;;4861190;29;20160;-92
2021/04/09 02:56:11;;;;;;;1999.90;999.90;;;6.40;99.90;;;;;;4860063;29;20058;-91
2021/04/09 02:58:39;;;;;;;1999.90;999.90;;;6.50;99.90;;;;;;4864154;29;20073;-92
2021/04/09 03:01:07;;;;;;;1999.90;999.90;;;6.40;99.90;;;;;;4864393;29;20560;-92
2021/04/09 03:03:37;;;;;;;1999.90;999.90;;;6.40;99.90;;;;;;4860164;29;20065;-92
2021/04/09 03:06:06;;;;;;;1999.90;999.90;;;6.50;99.90;;;;;;4851364;29;20466;-92
2021/04/09 03:08:35;;;;;;;1999.90;999.90;;;6.50;99.90;;;;;;4864062;29;20114;-92
2021/04/09 03:11:02;;;;;;;1999.90;999.90;;;6.50;99.90;;;;;;4868323;29;20851;-92
2021/04/09 03:13:30;;;;;;;1999.90;999.90;;;6.50;99.90;;;;;;4865346;29;20748;-92
2021/04/09 03:15:59;;;;;;;1999.90;999.90;;;6.40;99.90;;;;;;4863615;29;20814;-92
2021/04/09 03:18:27;;;;;;;1999.90;999.90;;;6.40;99.90;;;;;;4863519;29;20096;-92
2021/04/09 03:20:54;;;;;;;1999.90;999.90;;;6.40;99.90;;;;;;4863192;29;20153;-91
2021/04/09 03:23:23;;;;;;;1999.90;999.90;;;6.40;99.90;;;;;;4851905;29;20084;-92
2021/04/09 03:25:51;;;;;;;1999.90;999.90;;;6.40;99.90;;;;;;4849991;29;20085;-93
2021/04/09 03:28:18;;;;;;;1999.90;999.90;;;6.50;99.90;;;;;;4863551;29;20121;-91
2021/04/09 03:30:49;;;;;;;1999.90;999.90;;;6.40;99.90;;;;;;4863377;29;20061;-92
2021/04/09 03:33:18;;;;;;;1999.90;999.90;;;6.50;99.90;;;;;;4862265;29;20054;-92
2021/04/09 03:35:45;;;;;;;1999.90;999.90;;;6.50;99.90;;;;;;4854234;29;20053;-92
2021/04/09 03:38:13;;;;;;;1999.90;999.90;;;6.40;99.90;;;;;;4858628;29;20084;-92
2021/04/09 03:40:40;;;;;;;1999.90;999.90;;;6.40;99.90;;;;;;4862743;29;20053;-91
2021/04/09 03:43:10;;;;;;;1999.90;999.90;;;6.50;99.90;;;;;;4862781;29;20576;-92
2021/04/09 03:45:37;;;;;;;1999.90;999.90;;;6.50;99.90;;;;;;4863044;29;20412;-92
2021/04/09 03:48:05;;;;;;;1999.90;999.90;;;6.50;99.90;;;;;;4863249;29;20583;-92
2021/04/09 03:50:32;;;;;;;1999.90;999.90;;;6.50;99.90;;;;;;4864534;29;20148;-92
2021/04/09 03:52:59;;;;;;;1999.90;999.90;;;6.50;99.90;;;;;;4865154;29;20481;-93
2021/04/09 03:55:26;;;;;;;1999.90;999.90;;;6.50;99.90;;;;;;4864814;29;20081;-91
2021/04/09 03:57:55;;;;;;;1999.90;999.90;;;6.50;99.90;;;;;;4869998;29;20080;-92
2021/04/09 04:00:24;;;;;;;1999.90;999.90;;;6.50;99.90;;;;;;4876641;29;20129;-91
2021/04/09 04:02:52;;;;;;;1999.90;999.90;;;6.50;99.90;;;;;;4877535;29;20118;-92
2021/04/09 04:05:19;;;;;;;1999.90;999.90;;;6.50;99.90;;;;;;4868173;29;20057;-91
2021/04/09 04:07:47;;;;;;;1999.90;999.90;;;6.50;99.90;;;;;;4865714;29;20140;-93
2021/04/09 04:10:15;;;;;;;1999.90;999.90;;;6.40;99.90;;;;;;4858810;29;20081;-91
2021/04/09 04:12:43;;;;;;;1999.90;999.90;;;6.40;99.90;;;;;;4864255;29;20061;-92
2021/04/09 04:15:10;;;;;;;1999.90;999.90;;;6.40;99.90;;;;;;4869331;29;20083;-91
2021/04/09 04:17:38;;;;;;;1999.90;999.90;;;6.30;99.90;;;;;;4851750;29;20085;-91
2021/04/09 04:20:07;;;;;;;1999.90;999.90;;;6.30;99.90;;;;;;4860930;29;20061;-91
2021/04/09 04:22:34;;;;;;;1999.90;999.90;;;6.40;99.90;;;;;;4860698;29;20413;-91
2021/04/09 04:25:02;;;;;;;1999.90;999.90;;;6.30;99.90;;;;;;4864123;29;20193;-91
2021/04/09 04:27:30;;;;;;;1999.90;999.90;;;6.30;99.90;;;;;;4863332;29;20108;-92
2021/04/09 04:29:57;;;;;;;1999.90;999.90;;;6.30;99.90;;;;;;4868406;29;20110;-91
2021/04/09 04:32:24;;;;;;;1999.90;999.90;;;6.30;99.90;;;;;;4862039;29;20057;-91
2021/04/09 04:34:52;;;;;;;1999.90;999.90;;;6.30;99.90;;;;;;4859669;29;20462;-91
2021/04/09 04:37:19;;;;;;;1999.90;999.90;;;6.30;99.90;;;;;;4858929;29;20073;-92
2021/04/09 04:39:46;;;;;;;1999.90;999.90;;;6.30;99.90;;;;;;4862073;29;20084;-92
2021/04/09 04:42:13;;;;;;;1999.90;999.90;;;6.30;99.90;;;;;;4867552;29;20092;-90
2021/04/09 04:44:41;;;;;;;1999.90;999.90;;;6.30;99.90;;;;;;4868279;29;20520;-91
2021/04/09 04:47:07;;;;;;;1999.90;999.90;;;6.30;99.90;;;;;;4864911;29;20053;-92
2021/04/09 04:49:34;;;;;;;1999.90;999.90;;;6.30;99.90;;;;;;4862120;29;20061;-92
2021/04/09 04:52:01;;;;;;;1999.90;999.90;;;6.30;99.90;;;;;;4862156;29;20128;-92
2021/04/09 04:54:29;;;;;;;1999.90;999.90;;;6.30;99.90;;;;;;4863052;29;20057;-92
2021/04/09 04:56:55;;;;;;;1999.90;999.90;;;6.30;99.90;;;;;;4864849;29;20165;-92
2021/04/09 04:59:23;;;;;;;1999.90;999.90;;;6.30;99.90;;;;;;4865887;29;20125;-92
2021/04/09 05:01:53;;;;;;;1999.90;999.90;;;6.40;99.90;;;;;;4865476;29;20065;-92
2021/04/09 05:04:20;;;;;;;1999.90;999.90;;;6.40;99.90;;;;;;4861442;29;20053;-92
2021/04/09 05:06:47;;;;;;;1999.90;999.90;;;6.40;99.90;;;;;;4861268;29;20094;-92
2021/04/09 05:09:17;;;;;;;1999.90;999.90;;;6.40;99.90;;;;;;4872097;29;20057;-92
2021/04/09 05:11:44;;;;;;;1999.90;999.90;;;6.40;99.90;;;;;;4861837;29;20066;-92
2021/04/09 05:14:11;;;;;;;1999.90;999.90;;;6.40;99.90;;;;;;4868281;29;20053;-92
2021/04/09 05:16:38;;;;;;;1999.90;999.90;;;6.40;99.90;;;;;;4861342;29;20065;-92
2021/04/09 05:19:05;;;;;;;1999.90;999.90;;;6.40;99.90;;;;;;4861495;29;20064;-92
2021/04/09 05:21:32;;;;;;;1999.90;999.90;;;6.40;99.90;;;;;;4861965;29;20084;-92
2021/04/09 05:23:59;;;;;;;1999.90;999.90;;;6.40;99.90;;;;;;4861831;29;20106;-92
2021/04/09 05:26:29;;;;;;;1999.90;999.90;;;6.30;99.90;;;;;;4862660;29;20053;-93
2021/04/09 05:28:56;;;;;;;1999.90;999.90;;;6.30;99.90;;;;;;4853296;29;20497;-91
2021/04/09 05:31:23;;;;;;;1999.90;999.90;;;6.30;99.90;;;;;;4867653;29;20130;-92
2021/04/09 05:33:50;;;;;;;1999.90;999.90;;;6.30;99.90;;;;;;4863283;29;20065;-92
2021/04/09 05:36:18;;;;;;;1999.90;999.90;;;6.30;99.90;;;;;;4861794;29;20529;-93
2021/04/09 05:38:45;;;;;;;1999.90;999.90;;;6.30;99.90;;;;;;4870804;29;20060;-92
2021/04/09 05:41:12;;;;;;;1999.90;999.90;;;6.30;99.90;;;;;;4858317;29;20689;-92
2021/04/09 05:43:41;;;;;;;1999.90;999.90;;;6.30;99.90;;;;;;4859310;29;20422;-92
2021/04/09 05:46:08;;;;;;;1999.90;999.90;;;6.30;99.90;;;;;;4862942;29;20076;-92
2021/04/09 05:48:35;;;;;;;1999.90;999.90;;;6.30;99.90;;;;;;4861375;29;20062;-92
2021/04/09 05:51:03;;;;;;;1999.90;999.90;;;6.30;99.90;;;;;;4867805;29;20057;-93
2021/04/09 05:53:30;;;;;;;1999.90;999.90;;;6.30;99.90;;;;;;4867654;29;20061;-92
2021/04/09 05:55:57;;;;;;;1999.90;999.90;;;6.30;99.90;;;;;;4864698;29;20105;-92
2021/04/09 05:58:24;;;;;;;1999.90;999.90;;;6.30;99.90;;;;;;4861327;29;20164;-92
2021/04/09 06:00:53;;;;;;;1999.90;999.90;;;6.30;99.90;;;;;;4861272;29;20065;-92
2021/04/09 06:03:20;;;;;;;1999.90;999.90;;;6.30;99.90;;;;;;4858108;29;20085;-92
2021/04/09 06:05:47;;;;;;;1999.90;999.90;;;6.30;99.90;;;;;;4863416;29;20049;-92
2021/04/09 06:08:14;;;;;;;1999.90;999.90;;;6.40;99.90;;;;;;4861448;29;20472;-92
2021/04/09 06:10:41;;;;;;;1999.90;999.90;;;6.40;99.90;;;;;;4864357;29;20057;-92
2021/04/09 06:13:08;;;;;;;1999.90;999.90;;;6.40;99.90;;;;;;4854820;29;20072;-92
2021/04/09 06:15:35;;;;;;;1999.90;999.90;;;6.50;99.90;;;;;;4858708;29;20148;-91
2021/04/09 06:18:04;;;;;;;1999.90;999.90;;;6.50;99.90;;;;;;4861554;29;20066;-92
2021/04/09 06:20:31;;;;;;;1999.90;999.90;;;6.50;99.90;;;;;;4861460;29;20122;-92
2021/04/09 06:22:58;;;;;;;1999.90;999.90;;;6.50;99.90;;;;;;4861242;29;20512;-92
2021/04/09 06:25:25;;;;;;;1999.90;999.90;;;6.50;99.90;;;;;;4861194;29;20144;-92
2021/04/09 06:27:53;;;;;;;1999.90;999.90;;;6.50;99.90;;;;;;4863971;29;20106;-92
2021/04/09 06:30:21;;;;;;;1999.90;999.90;;;6.60;99.90;;;;;;4865993;29;20061;-93
2021/04/09 06:32:48;;;;;;;1999.90;999.90;;;6.60;99.90;;;;;;4864853;29;20565;-92
2021/04/09 06:35:17;;;;;;;1999.90;999.90;;;6.50;99.90;;;;;;4864475;29;20088;-93
2021/04/09 06:37:44;;;;;;;1999.90;999.90;;;6.60;99.90;;;;;;4864925;29;20117;-92
2021/04/09 06:40:14;;;;;;;1999.90;999.90;;;6.60;99.90;;;;;;4877817;29;20057;-92
2021/04/09 06:42:42;;;;;;;1999.90;999.90;;;6.60;99.90;;;;;;4862944;29;20133;-92
2021/04/09 06:45:10;;;;;;;1999.90;999.90;;;6.60;99.90;;;;;;4862720;29;20061;-92
2021/04/09 06:47:37;;;;;;;1999.90;999.90;;;6.70;99.90;;;;;;4855369;29;20156;-92
2021/04/09 06:50:06;;;;;;;1999.90;999.90;;;6.70;99.90;;;;;;4868985;29;20053;-93
2021/04/09 06:52:34;;;;;;;1999.90;999.90;;;6.80;99.90;;;;;;4864638;29;20049;-92
2021/04/09 06:55:02;;;;;;;1999.90;999.90;;;6.80;99.90;;;;;;4864419;29;20136;-91
2021/04/09 06:57:30;;;;;;;1999.90;999.90;;;6.90;99.90;;;;;;4875636;29;20078;-92
2021/04/09 07:00:02;;;;;;;1999.90;999.90;;;7.00;99.90;;;;;;4885748;29;20792;-92
2021/04/09 07:02:29;;;;;;;1999.90;999.90;;;7.00;99.90;;;;;;4886044;29;20081;-93
2021/04/09 07:04:56;;;;;;;1999.90;999.90;;;7.00;99.90;;;;;;4855709;29;20061;-92
2021/04/09 07:07:24;;;;;;;1999.90;999.90;;;7.00;99.90;;;;;;4865974;29;20057;-92
2021/04/09 07:09:51;;;;;;;1999.90;999.90;;;7.10;99.90;;;;;;4876608;29;20053;-92
2021/04/09 07:12:24;;;;;;;1999.90;999.90;;;7.10;99.90;;;;;;4878395;29;20065;-92
2021/04/09 07:14:53;;;;;;;1999.90;999.90;;;7.20;99.90;;;;;;4859960;29;20562;-92
2021/04/09 07:17:25;;;;;;;1999.90;999.90;;;7.30;99.90;;;;;;4857638;29;20057;-92
2021/04/09 07:20:12;;;;;;;1999.90;999.90;;;7.30;99.90;;;;;;4854758;29;20050;-93
2021/04/09 07:22:40;;;;;;;1999.90;999.90;;;7.30;99.90;;;;;;4871641;29;20076;-93
2021/04/09 07:25:11;;;;;;;1999.90;999.90;;;7.30;99.90;;;;;;4868727;29;20416;-93
2021/04/09 07:27:39;;;;;;;1999.90;999.90;;;7.40;99.90;;;;;;4881947;29;20454;-93
2021/04/09 07:30:09;;;;;;;1999.90;999.90;;;7.40;99.90;;;;;;4868656;29;20057;-94
2021/04/09 07:32:36;;;;;;;1999.90;999.90;;;7.50;99.90;;;;;;4867014;29;20081;-93
2021/04/09 07:35:10;;;;;;;1999.90;999.90;;;7.60;99.90;;;;;;4864278;29;20069;-92
2021/04/09 07:37:55;;;;;;;1999.90;999.90;;;7.70;99.90;;;;;;4864049;29;20057;-91
2021/04/09 07:40:28;;;;;;;1999.90;999.90;;;7.70;99.90;;;;;;4863307;29;20070;-92
2021/04/09 07:42:56;;;;;;;1999.90;999.90;;;7.70;99.90;;;;;;4852448;29;20096;-94
2021/04/09 07:45:24;;;;;;;1999.90;999.90;;;7.80;99.90;;;;;;4863075;29;20061;-93
2021/04/09 07:48:01;;;;;;;1999.90;999.90;;;7.90;99.90;;;;;;4874627;29;20061;-93
2021/04/09 07:50:41;;;;;;;1999.90;999.90;;;8.00;99.90;;;;;;4863549;29;20065;-92
2021/04/09 07:53:10;;;;;;;1999.90;999.90;;;8.10;99.90;;;;;;4873495;29;20081;-92
2021/04/09 07:55:38;;;;;;;1999.90;999.90;;;8.20;99.90;;;;;;4861639;29;20486;-93
2021/04/09 07:58:16;;;;;;;1999.90;999.90;;;8.20;99.90;;;;;;4863482;29;20148;-93
2021/04/09 08:00:45;;;;;;;1999.90;999.90;;;8.30;99.90;;;;;;4862944;29;20066;-93
2021/04/09 08:03:29;;;;;;;1999.90;999.90;;;8.30;99.90;;;;;;4862863;29;20141;-93
2021/04/09 08:06:13;;;;;;;1999.90;999.90;;;8.40;99.90;;;;;;4851920;29;20085;-94
2021/04/09 08:08:58;;;;;;;1999.90;999.90;;;8.50;99.90;;;;;;4862851;29;20140;-93
2021/04/09 08:11:29;;;;;;;1999.90;999.90;;;8.50;99.90;;;;;;4857909;29;20061;-91
2021/04/09 08:14:05;;;;;;;1999.90;999.90;;;8.50;99.90;;;;;;4865357;29;20053;-92
2021/04/09 08:16:40;;;;;;;1999.90;999.90;;;8.50;99.90;;;;;;4881104;29;20057;-92
2021/04/09 08:19:09;;;;;;;1999.90;999.90;;;8.70;99.90;;;;;;4862751;29;20065;-92
2021/04/09 08:21:39;;;;;;;1999.90;999.90;;;8.70;99.90;;;;;;4864510;29;20081;-92
2021/04/09 08:24:08;;;;;;;1999.90;999.90;;;8.70;99.90;;;;;;4851987;29;20053;-91
2021/04/09 08:26:37;;;;;;;1999.90;999.90;;;8.80;99.90;;;;;;4863599;29;20057;-93
2021/04/09 08:29:07;;;;;;;1999.90;999.90;;;8.90;99.90;;;;;;4868118;29;20054;-94
2021/04/09 08:31:36;;;;;;;1999.90;999.90;;;9.00;99.90;;;;;;4867128;29;20053;-95
2021/04/09 08:34:05;;;;;;;1999.90;999.90;;;9.00;99.90;;;;;;4867776;29;20061;-95
2021/04/09 08:36:34;;;;;;;1999.90;999.90;;;9.00;99.90;;;;;;4868083;29;20060;-93
2021/04/09 08:39:04;;;;;;;1999.90;999.90;;;9.00;99.90;;;;;;4866681;29;20400;-94
2021/04/09 08:41:31;;;;;;;1999.90;999.90;;;9.10;99.90;;;;;;4863222;29;20061;-93
2021/04/09 08:44:00;;;;;;;1999.90;999.90;;;9.20;99.90;;;;;;4863519;29;20132;-94
2021/04/09 08:46:28;;;;;;;1999.90;999.90;;;9.20;99.90;;;;;;4862757;29;20085;-94
2021/04/09 08:48:56;;;;;;;1999.90;999.90;;;9.30;99.90;;;;;;4863235;29;20057;-94
2021/04/09 08:51:24;;;;;;;1999.90;999.90;;;9.30;99.90;;;;;;4862823;29;20495;-94
2021/04/09 08:53:52;;;;;;;1999.90;999.90;;;9.30;99.90;;;;;;4863305;29;20098;-93
2021/04/09 08:56:33;;;;;;;1999.90;999.90;;;9.30;99.90;;;;;;4862817;29;20398;-94
2021/04/09 08:59:02;;;;;;;1999.90;999.90;;;9.30;99.90;;;;;;4863053;29;20072;-94
2021/04/09 09:01:30;;;;;;;1999.90;999.90;;;9.40;99.90;;;;;;4864893;29;20405;-95
2021/04/09 09:04:30;;;;;;;1999.90;999.90;;;9.40;99.90;;;;;;4862884;29;20085;-94
2021/04/09 09:06:57;;;;;;;1999.90;999.90;;;9.50;99.90;;;;;;4863206;29;20061;-95
2021/04/09 09:09:28;;;;;;;1999.90;999.90;;;9.60;99.90;;;;;;4863393;29;20093;-94
2021/04/09 09:11:56;;;;;;;1999.90;999.90;;;9.70;99.90;;;;;;4862889;29;20117;-94
2021/04/09 09:14:41;;;;;;;1999.90;999.90;;;9.60;99.90;;;;;;4863434;29;20068;-93
2021/04/09 09:17:38;;;;;;;1999.90;999.90;;;9.70;99.90;;;;;;4863703;29;20064;-95
2021/04/09 09:20:11;;;;;;;1999.90;999.90;;;9.60;99.90;;;;;;4866489;29;20056;-93
2021/04/09 09:22:45;;;;;;;1999.90;999.90;;;9.60;99.90;;;;;;4881774;29;20105;-93
2021/04/09 09:25:13;;;;;;;1999.90;999.90;;;9.60;99.90;;;;;;4875703;29;20565;-94
2021/04/09 09:27:48;;;;;;;1999.90;999.90;;;9.70;99.90;;;;;;4873260;29;20305;-94
2021/04/09 09:30:29;;;;;;;1999.90;999.90;;;9.70;99.90;;;;;;4881613;29;20084;-95
2021/04/09 09:33:25;;;;;;;1999.90;999.90;;;9.70;99.90;;;;;;4882790;29;20065;-94
2021/04/09 09:36:01;;;;;;;1999.90;999.90;;;9.70;99.90;;;;;;4863795;29;20550;-94
2021/04/09 09:38:53;;;;;;;1999.90;999.90;;;9.80;99.90;;;;;;4866008;29;20077;-95
2021/04/09 09:41:42;;;;;;;1999.90;999.90;;;9.80;99.90;;;;;;4869683;29;20477;-95
2021/04/09 09:44:33;;;;;;;1999.90;999.90;;;9.90;99.90;;;;;;4854395;29;20112;-94
2021/04/09 09:47:05;;;;;;;1999.90;999.90;;;10.10;99.90;;;;;;4881134;29;20057;-94
2021/04/09 09:49:36;;;;;;;1999.90;999.90;;;10.30;99.90;;;;;;4874569;29;20557;-94
2021/04/09 09:52:23;;;;;;;1999.90;999.90;;;10.30;99.90;;;;;;4876718;29;20068;-95
2021/04/09 09:55:12;;;;;;;1999.90;999.90;;;10.40;99.90;;;;;;4873529;29;20061;-95
2021/04/09 09:57:47;;;;;;;1999.90;999.90;;;10.40;99.90;;;;;;4862142;29;20057;-95
2021/04/09 10:00:24;;;;;;;1999.90;999.90;;;10.40;99.90;;;;;;4862263;29;20062;-94
2021/04/09 10:03:08;;;;;;;1999.90;999.90;;;10.40;99.90;;;;;;4864886;29;20068;-95
2021/04/09 10:05:36;;;;;;;1999.90;999.90;;;10.40;99.90;;;;;;4871662;29;20086;-94
2021/04/09 10:08:04;;;;;;;1999.90;999.90;;;10.20;99.90;;;;;;4890727;29;20061;-93
2021/04/09 10:10:51;;;;;;;1999.90;999.90;;;10.20;99.90;;;;;;4887636;29;20026;-94
2021/04/09 10:13:26;;;;;;;1999.90;999.90;;;10.10;99.90;;;;;;4860106;29;20088;-94
2021/04/09 10:16:04;;;;;;;1999.90;999.90;;;10.20;99.90;;;;;;4863146;29;20058;-93
2021/04/09 10:18:33;;;;;;;1999.90;999.90;;;10.10;99.90;;;;;;4862201;29;20060;-93
2021/04/09 10:21:13;;;;;;;1999.90;999.90;;;10.20;99.90;;;;;;4865777;29;20061;-95
2021/04/09 10:23:40;;;;;;;1999.90;999.90;;;10.20;99.90;;;;;;4865512;29;20462;-94
2021/04/09 10:26:08;;;;;;;1999.90;999.90;;;10.40;99.90;;;;;;4865172;29;20053;-93
2021/04/09 10:28:35;;;;;;;1999.90;999.90;;;10.40;99.90;;;;;;4865345;29;20069;-94
2021/04/09 10:31:14;;;;;;;1999.90;999.90;;;10.40;99.90;;;;;;4865352;29;20504;-94
2021/04/09 10:33:44;;;;;;;1999.90;999.90;;;10.50;99.90;;;;;;4865492;29;20458;-94
2021/04/09 10:36:20;;;;;;;1999.90;999.90;;;10.50;99.90;;;;;;4865651;29;20064;-93
2021/04/09 10:38:49;;;;;;;1999.90;999.90;;;10.50;99.90;;;;;;4870389;29;20057;-94
2021/04/09 10:41:31;;;;;;;1999.90;999.90;;;10.60;99.90;;;;;;4884036;29;20089;-94
2021/04/09 10:44:00;;;;;;;1999.90;999.90;;;10.70;99.90;;;;;;4883880;29;20067;-93
2021/04/09 10:46:29;;;;;;;1999.90;999.90;;;10.70;99.90;;;;;;4883161;29;20057;-93
2021/04/09 10:49:01;;;;;;;1999.90;999.90;;;10.80;99.90;;;;;;4867706;29;20156;-95
2021/04/09 10:51:30;;;;;;;1999.90;999.90;;;10.90;99.90;;;;;;4864931;29;20058;-93
2021/04/09 10:54:10;;;;;;;1999.90;999.90;;;11.00;99.90;;;;;;4865160;29;20148;-93
2021/04/09 10:56:40;;;;;;;1999.90;999.90;;;11.10;99.90;;;;;;4865870;29;20071;-94
2021/04/09 10:59:25;;;;;;;1999.90;999.90;;;11.20;99.90;;;;;;4882817;29;20527;-93
2021/04/09 11:01:53;;;;;;;1999.90;999.90;;;11.10;99.90;;;;;;4880573;29;20057;-95
2021/04/09 11:04:22;;;;;;;1999.90;999.90;;;11.10;99.90;;;;;;4872416;29;20068;-93
2021/04/09 11:06:51;;;;;;;1999.90;999.90;;;11.10;99.90;;;;;;4883359;29;20480;-94
2021/04/09 11:09:19;;;;;;;1999.90;999.90;;;11.10;99.90;;;;;;4883399;29;20473;-94
2021/04/09 11:11:46;;;;;;;1999.90;999.90;;;11.20;99.90;;;;;;4883078;29;20569;-93
2021/04/09 11:14:18;;;;;;;1999.90;999.90;;;11.30;99.90;;;;;;4878711;29;20113;-94
2021/04/09 11:17:03;;;;;;;1999.90;999.90;;;11.40;99.90;;;;;;4864723;29;20430;-94
2021/04/09 11:19:36;;;;;;;1999.90;999.90;;;11.50;99.90;;;;;;4864897;29;20064;-93
2021/04/09 11:22:06;;;;;;;1999.90;999.90;;;11.40;99.90;;;;;;4864882;29;20089;-94
2021/04/09 11:24:35;;;;;;;1999.90;999.90;;;11.30;99.90;;;;;;4867643;29;20062;-93
2021/04/09 11:27:27;;;;;;;1999.90;999.90;;;11.40;99.90;;;;;;4869497;29;20049;-94
2021/04/09 11:30:14;;;;;;;1999.90;999.90;;;11.40;99.90;;;;;;4865767;29;20629;-94
2021/04/09 11:32:44;;;;;;;1999.90;999.90;;;11.50;99.90;;;;;;4864425;29;20546;-94
2021/04/09 11:35:13;;;;;;;1999.90;999.90;;;11.50;99.90;;;;;;4865863;29;20527;-94
2021/04/09 11:37:46;;;;;;;1999.90;999.90;;;11.60;99.90;;;;;;4883960;29;20049;-94
2021/04/09 11:40:15;;;;;;;1999.90;999.90;;;11.60;99.90;;;;;;4869620;29;20068;-94
2021/04/09 11:42:42;;;;;;;1999.90;999.90;;;11.60;99.90;;;;;;4870172;29;20073;-94
2021/04/09 11:45:11;;;;;;;1999.90;999.90;;;11.60;99.90;;;;;;4883141;29;20061;-94
2021/04/09 11:47:40;;;;;;;1999.90;999.90;;;11.70;99.90;;;;;;4882735;29;20056;-94
2021/04/09 11:50:14;;;;;;;1999.90;999.90;;;11.90;99.90;;;;;;4882783;29;20057;-93
2021/04/09 11:53:01;;;;;;;1999.90;999.90;;;12.10;99.90;;;;;;4883008;29;20112;-94
2021/04/09 11:55:30;;;;;;;1999.90;999.90;;;12.30;99.70;;;;;;4865581;29;20569;-94
2021/04/09 11:58:04;;;;;;;1999.90;999.90;;;12.30;99.70;;;;;;4875939;29;20132;-94
2021/04/09 12:00:33;;;;;;;1999.90;999.90;;;12.30;99.60;;;;;;4868464;29;20096;-94
2021/04/09 12:03:03;;;;;;;1999.90;999.90;;;12.20;99.40;;;;;;4867621;29;20054;-94
2021/04/09 12:05:33;;;;;;;1999.90;999.90;;;12.20;99.60;;;;;;4873053;29;20063;-95
2021/04/09 12:08:01;;;;;;;1999.90;999.90;;;12.30;99.10;;;;;;4874337;29;20098;-94
2021/04/09 12:10:35;;;;;;;1999.90;999.90;;;12.20;99.00;;;;;;4871664;29;20062;-94
2021/04/09 12:13:04;;;;;;;1999.90;999.90;;;12.20;98.70;;;;;;4874021;29;20412;-93
2021/04/09 12:15:31;;;;;;;1999.90;999.90;;;12.30;99.20;;;;;;4882642;29;20476;-94
2021/04/09 12:17:58;;;;;;;1999.90;999.90;;;12.60;98.20;;;;;;4882130;29;20056;-93
2021/04/09 12:20:27;;;;;;;1999.90;999.90;;;12.70;97.80;;;;;;4882329;29;20159;-94
2021/04/09 12:22:56;;;;;;;1999.90;999.90;;;12.70;97.60;;;;;;4882267;29;20560;-94